createdAt,value
2022-12-09T00:01:52.008Z,21.17
2022-12-09T00:04:19.908Z,20.83
2022-12-09T00:06:48.207Z,21.10
2022-12-09T00:09:17.016Z,20.55
2022-12-09T00:11:45.813Z,21.05
2022-12-09T00:14:13.654Z,21.25
2022-12-09T00:16:43.579Z,21.35
2022-12-09T00:19:11.960Z,20.35
2022-12-09T00:21:40.537Z,20.08
2022-12-09T00:24:11.138Z,20.77
2022-12-09T00:26:40.127Z,21.05
2022-12-09T00:29:08.629Z,20.17
2022-12-09T00:31:39.267Z,20.05
2022-12-09T00:34:12.505Z,18.73
2022-12-09T00:36:41.824Z,20.50
2022-12-09T00:39:12.236Z,20.95
2022-12-09T00:41:40.702Z,20.48
2022-12-09T00:44:08.516Z,20.77
2022-12-09T00:46:37.112Z,20.90
2022-12-09T00:49:05.559Z,19.38
2022-12-09T00:51:35.268Z,20.95
2022-12-09T00:54:03.414Z,20.77
2022-12-09T00:56:32.785Z,20.80
2022-12-09T00:59:00.788Z,21.45
2022-12-09T01:01:29.458Z,21.02
2022-12-09T01:03:58.783Z,20.20
2022-12-09T01:06:28.246Z,20.20
2022-12-09T01:08:57.589Z,21.08
2022-12-09T01:11:28.399Z,20.30
2022-12-09T01:14:01.106Z,19.33
2022-12-09T01:16:31.655Z,20.35
2022-12-09T01:19:01.719Z,20.42
2022-12-09T01:21:31.452Z,19.88
2022-12-09T01:24:00.900Z,20.90
2022-12-09T01:26:28.864Z,20.35
2022-12-09T01:28:57.841Z,20.33
2022-12-09T01:31:26.584Z,19.48
2022-12-09T01:33:56.895Z,21.10
2022-12-09T01:36:27.119Z,21.90
2022-12-09T01:38:55.651Z,22.13
2022-12-09T01:41:25.167Z,21.98
2022-12-09T01:44:17.022Z,21.80
2022-12-09T01:46:45.645Z,20.88
2022-12-09T01:49:18.926Z,22.13
2022-12-09T01:51:53.321Z,21.38
2022-12-09T01:54:22.578Z,20.20
2022-12-09T01:56:53.025Z,20.30
2022-12-09T01:59:21.847Z,19.80
2022-12-09T02:01:54.228Z,20.60
2022-12-09T02:04:22.573Z,21.75
2022-12-09T02:06:50.561Z,21.77
2022-12-09T02:09:18.685Z,20.35
2022-12-09T02:12:01.588Z,21.58
2022-12-09T02:14:37.025Z,21.25
2022-12-09T02:17:19.198Z,22.60
2022-12-09T02:20:02.013Z,21.38
2022-12-09T02:22:34.720Z,21.98
2022-12-09T02:25:14.138Z,20.75
2022-12-09T02:27:50.404Z,21.13
2022-12-09T02:30:22.626Z,21.85
2022-12-09T02:33:13.656Z,21.45
2022-12-09T02:35:50.054Z,19.65
2022-12-09T02:38:23.019Z,21.00
2022-12-09T02:40:55.848Z,19.73
2022-12-09T02:43:27.746Z,19.98
2022-12-09T02:45:58.549Z,21.20
2022-12-09T02:48:31.395Z,20.15
2022-12-09T02:51:06.204Z,19.50
2022-12-09T02:53:35.937Z,19.83
2022-12-09T02:56:06.270Z,21.23
2022-12-09T02:58:34.119Z,20.55
2022-12-09T03:01:02.871Z,19.58
2022-12-09T03:03:34.378Z,18.60
2022-12-09T03:06:10.172Z,19.88
2022-12-09T03:08:45.900Z,21.02
2022-12-09T03:11:17.366Z,20.45
2022-12-09T03:13:53.578Z,20.85
2022-12-09T03:16:29.021Z,20.92
2022-12-09T03:19:02.435Z,19.55
2022-12-09T03:21:37.020Z,18.88
2022-12-09T03:24:10.306Z,20.35
2022-12-09T03:26:40.441Z,22.08
2022-12-09T03:29:12.160Z,20.90
2022-12-09T03:31:41.261Z,20.52
2022-12-09T03:34:15.726Z,21.13
2022-12-09T03:36:49.814Z,20.95
2022-12-09T03:39:22.586Z,19.40
2022-12-09T03:41:56.810Z,19.90
2022-12-09T03:44:31.454Z,20.35
2022-12-09T03:47:00.314Z,19.88
2022-12-09T03:49:28.927Z,20.15
2022-12-09T03:52:04.105Z,19.85
2022-12-09T03:57:05.357Z,19.98
2022-12-09T03:59:36.630Z,20.95
2022-12-09T04:02:07.707Z,20.55
2022-12-09T04:04:36.650Z,20.52
2022-12-09T04:07:05.935Z,22.25
2022-12-09T04:09:34.377Z,18.33
2022-12-09T04:12:02.979Z,21.33
2022-12-09T04:14:31.192Z,20.23
2022-12-09T04:16:59.574Z,20.13
2022-12-09T04:19:30.807Z,20.33
2022-12-09T04:21:58.945Z,21.65
2022-12-09T04:24:28.879Z,20.27
2022-12-09T04:26:57.424Z,20.88
2022-12-09T04:29:25.319Z,20.40
2022-12-09T04:31:53.875Z,22.15
2022-12-09T04:34:22.205Z,21.08
2022-12-09T04:36:50.507Z,21.75
2022-12-09T04:39:19.917Z,23.02
2022-12-09T04:41:49.971Z,24.40
2022-12-09T04:44:17.964Z,23.35
2022-12-09T04:46:46.158Z,23.73
2022-12-09T04:49:14.191Z,26.13
2022-12-09T04:51:43.292Z,23.83
2022-12-09T04:54:14.567Z,24.17
2022-12-09T04:56:43.751Z,24.30
2022-12-09T04:59:13.448Z,24.80
2022-12-09T05:01:42.260Z,23.98
2022-12-09T05:04:11.218Z,23.83
2022-12-09T05:06:39.566Z,23.80
2022-12-09T05:09:12.417Z,24.48
2022-12-09T05:11:41.206Z,22.52
2022-12-09T05:14:09.047Z,23.52
2022-12-09T05:16:39.234Z,23.33
2022-12-09T05:19:07.214Z,22.48
2022-12-09T05:21:35.719Z,24.00
2022-12-09T05:24:04.427Z,24.40
2022-12-09T05:26:32.372Z,24.85
2022-12-09T05:29:00.796Z,24.48
2022-12-09T05:31:29.885Z,22.75
2022-12-09T05:33:59.829Z,21.50
2022-12-09T05:36:29.257Z,22.33
2022-12-09T05:38:57.881Z,21.65
2022-12-09T05:41:27.326Z,22.25
2022-12-09T05:43:56.030Z,21.90
2022-12-09T05:46:24.375Z,23.48
2022-12-09T05:48:53.277Z,22.83
2022-12-09T05:51:32.358Z,23.10
2022-12-09T05:54:04.471Z,21.63
2022-12-09T05:56:39.462Z,20.92
2022-12-09T05:59:12.130Z,21.98
2022-12-09T06:01:40.314Z,21.95
2022-12-09T06:04:14.822Z,21.80
2022-12-09T06:06:45.450Z,22.60
2022-12-09T06:09:18.221Z,23.15
2022-12-09T06:11:47.917Z,22.75
2022-12-09T06:14:28.612Z,21.42
2022-12-09T06:16:56.706Z,21.90
2022-12-09T06:19:30.297Z,21.80
2022-12-09T06:22:02.149Z,20.05
2022-12-09T06:24:40.522Z,22.73
2022-12-09T06:27:12.844Z,20.52
2022-12-09T06:29:45.641Z,20.20
2022-12-09T06:32:31.448Z,21.02
2022-12-09T06:35:00.646Z,23.30
2022-12-09T06:44:17.129Z,22.27
2022-12-09T06:46:50.446Z,22.67
2022-12-09T06:49:19.163Z,21.60
2022-12-09T06:51:47.729Z,22.27
2022-12-09T06:54:18.657Z,22.25
2022-12-09T06:56:46.576Z,23.73
2022-12-09T06:59:15.007Z,22.02
2022-12-09T07:01:43.871Z,25.20
2022-12-09T07:04:14.792Z,23.92
2022-12-09T07:06:46.289Z,24.08
2022-12-09T07:09:16.958Z,23.20
2022-12-09T07:11:47.258Z,26.35
2022-12-09T07:14:20.030Z,23.65
2022-12-09T07:16:48.327Z,24.10
2022-12-09T07:19:18.999Z,25.02
2022-12-09T07:21:47.900Z,25.15
2022-12-09T07:24:16.229Z,25.48
2022-12-09T07:26:44.622Z,24.00
2022-12-09T07:29:15.911Z,23.45
2022-12-09T07:31:45.266Z,24.85
2022-12-09T07:34:13.890Z,24.63
2022-12-09T07:36:42.630Z,24.67
2022-12-09T07:39:14.861Z,23.23
2022-12-09T07:41:43.394Z,24.35
2022-12-09T07:44:12.985Z,25.25
2022-12-09T07:49:12.852Z,26.50
2022-12-09T07:51:40.912Z,27.70
2022-12-09T07:54:12.376Z,28.42
2022-12-09T07:56:40.930Z,29.90
2022-12-09T07:59:10.382Z,26.00
2022-12-09T08:01:40.085Z,29.45
2022-12-09T08:04:08.533Z,29.88
2022-12-09T08:06:37.942Z,27.33
2022-12-09T08:09:08.502Z,28.05
2022-12-09T08:11:37.721Z,26.77
2022-12-09T08:14:11.374Z,28.60
2022-12-09T08:16:43.536Z,28.77
2022-12-09T08:19:12.357Z,28.15
2022-12-09T08:21:40.742Z,27.98
2022-12-09T08:24:09.111Z,27.98
2022-12-09T08:26:40.195Z,28.38
2022-12-09T08:29:10.048Z,29.75
2022-12-09T08:31:41.693Z,29.10
2022-12-09T08:34:12.118Z,26.98
2022-12-09T08:36:43.299Z,27.15
2022-12-09T08:39:12.340Z,31.13
2022-12-09T08:41:41.179Z,30.10
2022-12-09T08:44:12.280Z,27.00
2022-12-09T08:46:44.596Z,25.00
2022-12-09T08:49:18.287Z,25.35
2022-12-09T08:51:48.301Z,23.77
2022-12-09T08:54:16.637Z,26.05
2022-12-09T08:56:46.802Z,24.83
2022-12-09T08:59:16.057Z,23.77
2022-12-09T09:01:44.655Z,26.85
2022-12-09T09:04:17.161Z,26.50
2022-12-09T09:06:49.617Z,28.27
2022-12-09T09:09:20.359Z,25.90
2022-12-09T09:11:48.923Z,27.25
2022-12-09T09:14:17.494Z,25.40
2022-12-09T09:16:47.181Z,31.58
2022-12-09T09:19:20.623Z,22.77
2022-12-09T09:21:49.708Z,23.92
2022-12-09T09:24:20.703Z,24.13
2022-12-09T09:26:50.998Z,23.55
2022-12-09T09:29:21.304Z,25.55
2022-12-09T09:31:51.904Z,23.88
2022-12-09T09:34:21.469Z,26.48
2022-12-09T09:36:51.173Z,23.67
2022-12-09T09:39:20.164Z,22.15
2022-12-09T09:41:52.925Z,22.70
2022-12-09T09:44:27.324Z,22.63
2022-12-09T09:49:54.469Z,23.50
2022-12-09T09:52:26.149Z,23.20
2022-12-09T09:54:54.270Z,24.42
2022-12-09T09:57:28.520Z,23.55
2022-12-09T10:00:10.132Z,24.98
2022-12-09T10:02:52.522Z,24.70
2022-12-09T10:05:26.198Z,24.08
2022-12-09T10:07:58.335Z,26.77
2022-12-09T10:10:40.294Z,26.75
2022-12-09T10:13:25.654Z,24.50
2022-12-09T10:16:06.321Z,24.48
2022-12-09T10:18:39.860Z,22.73
2022-12-09T10:21:17.194Z,22.70
2022-12-09T10:23:47.062Z,23.23
2022-12-09T10:26:21.255Z,23.05
2022-12-09T10:28:56.317Z,25.05
2022-12-09T10:31:25.881Z,18.10
2022-12-09T10:33:54.408Z,22.75
2022-12-09T10:36:32.392Z,25.00
2022-12-09T10:39:05.279Z,24.17
2022-12-09T10:42:01.412Z,23.63
2022-12-09T10:44:29.715Z,23.30
2022-12-09T10:46:59.913Z,25.13
2022-12-09T10:49:28.853Z,22.60
2022-12-09T10:52:00.115Z,23.33
2022-12-09T10:54:34.309Z,24.45
2022-12-09T10:57:09.580Z,22.67
2022-12-09T11:02:20.439Z,23.27
2022-12-09T11:04:49.288Z,24.45
2022-12-09T11:10:20.392Z,24.13
2022-12-09T11:12:53.486Z,25.65
2022-12-09T11:15:32.461Z,25.63
2022-12-09T11:20:59.271Z,24.92
2022-12-09T11:23:32.759Z,25.13
2022-12-09T11:26:02.610Z,24.10
2022-12-09T11:28:32.864Z,23.73
2022-12-09T11:33:56.731Z,24.15
2022-12-09T11:36:30.665Z,24.90
2022-12-09T11:39:21.366Z,26.10
2022-12-09T11:42:16.138Z,24.58
2022-12-09T11:47:23.706Z,25.13
2022-12-09T11:49:54.570Z,26.63
2022-12-09T11:52:26.381Z,25.13
2022-12-09T11:55:06.103Z,26.52
2022-12-09T11:57:37.430Z,27.52
2022-12-09T12:00:15.856Z,28.05
2022-12-09T12:02:49.643Z,27.58
2022-12-09T12:05:25.179Z,27.58
2022-12-09T12:08:04.263Z,28.92
2022-12-09T12:10:38.180Z,28.73
2022-12-09T12:13:13.353Z,25.40
2022-12-09T12:18:18.946Z,29.02
2022-12-09T12:21:05.050Z,23.23
2022-12-09T12:24:11.368Z,32.78
2022-12-09T12:26:45.093Z,29.25
2022-12-09T12:29:32.025Z,29.73
2022-12-09T12:32:25.573Z,29.33
2022-12-09T12:35:07.112Z,28.80
2022-12-09T12:37:48.834Z,27.45
2022-12-09T12:40:28.935Z,26.65
2022-12-09T12:43:24.522Z,28.98
2022-12-09T12:46:16.088Z,29.13
2022-12-09T12:48:56.913Z,27.63
2022-12-09T12:51:33.808Z,27.30
2022-12-09T12:54:16.325Z,28.50
2022-12-09T12:56:52.457Z,28.63
2022-12-09T12:59:30.656Z,28.85
2022-12-09T13:02:03.513Z,31.67
2022-12-09T13:04:41.253Z,30.50
2022-12-09T13:07:19.175Z,29.25
2022-12-09T13:09:53.725Z,31.58
2022-12-09T13:15:26.946Z,30.25
2022-12-09T13:17:56.182Z,31.38
2022-12-09T13:20:30.223Z,30.65
2022-12-09T13:23:04.393Z,30.33
2022-12-09T13:25:40.358Z,31.13
2022-12-09T13:28:12.668Z,32.45
2022-12-09T13:30:54.047Z,27.42
2022-12-09T13:33:38.327Z,29.45
2022-12-09T13:36:12.791Z,28.75
2022-12-09T13:38:42.607Z,27.13
2022-12-09T13:41:52.597Z,25.88
2022-12-09T13:44:21.276Z,27.13
2022-12-09T13:46:50.546Z,25.48
2022-12-09T13:49:21.291Z,22.83
2022-12-09T13:51:51.694Z,23.48
2022-12-09T13:54:21.786Z,22.52
2022-12-09T13:57:13.158Z,21.50
2022-12-09T13:59:46.316Z,22.60
2022-12-09T14:02:26.313Z,22.70
2022-12-09T14:05:03.364Z,22.08
2022-12-09T14:07:37.344Z,22.10
2022-12-09T14:10:06.886Z,21.58
2022-12-09T14:13:05.235Z,22.42
2022-12-09T14:15:39.564Z,21.02
2022-12-09T14:18:29.641Z,21.25
2022-12-09T14:21:31.864Z,20.77
2022-12-09T14:24:42.181Z,20.60
2022-12-09T14:27:18.368Z,22.45
2022-12-09T14:29:55.410Z,20.20
2022-12-09T14:32:29.229Z,20.60
2022-12-09T14:35:26.354Z,27.80
2022-12-09T14:38:21.121Z,23.40
2022-12-09T14:41:07.069Z,22.10
2022-12-09T14:44:00.532Z,22.35
2022-12-09T14:46:31.807Z,23.17
2022-12-09T14:49:03.421Z,22.10
2022-12-09T14:51:36.719Z,24.83
2022-12-09T14:54:08.109Z,24.08
2022-12-09T14:56:36.473Z,24.52
2022-12-09T14:59:10.079Z,24.33
2022-12-09T15:01:52.597Z,22.52
2022-12-09T15:04:31.243Z,23.90
2022-12-09T15:07:15.014Z,21.75
2022-12-09T15:09:55.120Z,22.00
2022-12-09T15:12:27.352Z,23.10
2022-12-09T15:14:59.787Z,27.55
2022-12-09T15:17:30.885Z,32.10
2022-12-09T15:20:00.489Z,39.17
2022-12-09T15:22:32.003Z,30.13
2022-12-09T15:25:02.506Z,24.02
2022-12-09T15:27:31.563Z,25.85
2022-12-09T15:29:59.554Z,25.13
2022-12-09T15:32:29.667Z,22.17
2022-12-09T15:35:17.619Z,22.35
2022-12-09T15:37:48.605Z,22.55
2022-12-09T15:40:20.613Z,23.38
2022-12-09T15:42:51.330Z,30.35
2022-12-09T15:45:21.952Z,25.42
2022-12-09T15:47:56.453Z,25.05
2022-12-09T15:50:32.378Z,29.63
2022-12-09T15:53:11.393Z,30.05
2022-12-09T15:55:43.840Z,23.85
2022-12-09T15:58:16.535Z,22.33
2022-12-09T16:00:48.866Z,24.02
2022-12-09T16:03:18.997Z,23.23
2022-12-09T16:05:53.366Z,24.33
2022-12-09T16:08:23.764Z,23.53
2022-12-09T16:10:53.316Z,23.70
2022-12-09T16:13:22.324Z,24.70
2022-12-09T16:15:53.130Z,24.63
2022-12-09T16:18:25.015Z,24.45
2022-12-09T16:21:21.093Z,27.48
2022-12-09T16:23:52.798Z,23.80
2022-12-09T16:26:28.740Z,24.73
2022-12-09T16:28:58.729Z,26.50
2022-12-09T16:31:27.116Z,30.20
2022-12-09T16:33:55.570Z,27.23
2022-12-09T16:36:26.695Z,25.75
2022-12-09T16:39:43.849Z,24.83
2022-12-09T16:42:22.864Z,26.25
2022-12-09T16:44:50.972Z,24.17
2022-12-09T16:47:21.018Z,23.25
2022-12-09T16:49:49.886Z,22.75
2022-12-09T16:52:21.389Z,26.40
2022-12-09T16:54:52.078Z,26.13
2022-12-09T16:57:21.604Z,26.52
2022-12-09T16:59:49.409Z,23.20
2022-12-09T17:02:22.363Z,23.55
2022-12-09T17:04:52.064Z,21.02
2022-12-09T17:07:20.129Z,21.45
2022-12-09T17:09:47.957Z,25.17
2022-12-09T17:12:17.348Z,23.20
2022-12-09T17:14:45.245Z,20.05
2022-12-09T17:17:13.446Z,21.55
2022-12-09T17:19:42.143Z,22.67
2022-12-09T17:22:10.666Z,22.27
2022-12-09T17:24:38.789Z,21.73
2022-12-09T17:27:06.676Z,21.48
2022-12-09T17:29:37.411Z,27.08
2022-12-09T17:32:05.630Z,25.35
2022-12-09T17:34:35.247Z,20.65
2022-12-09T17:37:03.097Z,21.42
2022-12-09T17:39:31.581Z,21.38
2022-12-09T17:41:59.499Z,21.55
2022-12-09T17:44:27.789Z,20.05
2022-12-09T17:46:57.080Z,22.90
2022-12-09T17:49:25.419Z,22.05
2022-12-09T17:51:53.529Z,20.02
2022-12-09T17:54:21.666Z,20.95
2022-12-09T17:56:49.571Z,20.75
2022-12-09T17:59:19.325Z,21.17
2022-12-09T18:01:47.391Z,21.05
2022-12-09T18:04:17.451Z,20.98
2022-12-09T18:06:46.853Z,19.45
2022-12-09T18:09:18.036Z,20.23
2022-12-09T18:11:46.121Z,21.25
2022-12-09T18:14:14.617Z,21.73
2022-12-09T18:16:43.846Z,20.50
2022-12-09T18:19:15.228Z,25.30
2022-12-09T18:21:45.818Z,24.45
2022-12-09T18:24:15.088Z,20.85
2022-12-09T18:26:43.220Z,19.17
2022-12-09T18:29:12.292Z,20.38
2022-12-09T18:31:40.448Z,19.98
2022-12-09T18:34:08.753Z,20.38
2022-12-09T18:36:38.912Z,20.58
2022-12-09T18:39:47.328Z,21.42
2022-12-09T18:44:57.833Z,19.33
2022-12-09T18:47:25.893Z,19.15
2022-12-09T18:55:14.143Z,20.33
2022-12-09T19:06:08.336Z,16.57
2022-12-09T19:19:37.572Z,19.15
2022-12-09T19:25:25.309Z,24.20
2022-12-09T19:28:16.763Z,24.73
2022-12-09T19:37:36.689Z,24.60
2022-12-09T19:40:45.018Z,22.73
2022-12-09T19:53:25.150Z,24.10
2022-12-09T20:06:53.049Z,24.10
2022-12-09T20:16:26.355Z,21.73
2022-12-09T20:24:10.167Z,23.65
2022-12-09T20:26:39.287Z,22.42
2022-12-09T20:29:11.224Z,21.20
2022-12-09T20:31:40.684Z,22.77
2022-12-09T20:34:13.014Z,24.40
2022-12-09T20:36:43.442Z,24.25
2022-12-09T20:39:15.963Z,23.95
2022-12-09T20:41:45.156Z,28.90
2022-12-09T20:44:14.417Z,24.60
2022-12-09T20:46:46.375Z,30.38
2022-12-09T20:49:14.059Z,29.48
2022-12-09T20:51:44.169Z,26.85
2022-12-09T20:54:14.557Z,24.50
2022-12-09T20:56:42.776Z,26.65
2022-12-09T20:59:12.468Z,28.55
2022-12-09T21:01:41.135Z,25.23
2022-12-09T21:04:09.277Z,27.55
2022-12-09T21:06:39.737Z,32.17
2022-12-09T21:09:10.230Z,29.27
2022-12-09T21:11:40.836Z,32.78
2022-12-09T21:14:09.027Z,29.85
2022-12-09T21:16:40.197Z,27.48
2022-12-09T21:19:11.416Z,30.02
2022-12-09T21:21:41.744Z,26.55
2022-12-09T21:24:11.713Z,28.98
2022-12-09T21:26:42.137Z,26.17
2022-12-09T21:29:11.548Z,30.67
2022-12-09T21:31:40.965Z,26.55
2022-12-09T21:34:11.489Z,25.02
2022-12-09T21:36:42.766Z,24.70
2022-12-09T21:39:13.713Z,26.67
2022-12-09T21:41:43.864Z,27.35
2022-12-09T21:44:16.662Z,24.50
2022-12-09T21:46:44.865Z,24.85
2022-12-09T21:49:13.375Z,23.38
2022-12-09T21:51:42.132Z,24.02
2022-12-09T21:54:10.543Z,27.52
2022-12-09T21:56:38.973Z,24.83
2022-12-09T21:59:09.614Z,22.63
2022-12-09T22:01:39.684Z,24.73
2022-12-09T22:04:10.007Z,24.52
2022-12-09T22:06:38.119Z,24.30
2022-12-09T22:09:07.958Z,24.98
2022-12-09T22:11:38.015Z,22.73
2022-12-09T22:14:07.153Z,22.15
2022-12-09T22:16:38.433Z,22.77
2022-12-09T22:19:08.318Z,24.15
2022-12-09T22:21:37.345Z,24.02
2022-12-09T22:24:07.319Z,24.25
2022-12-09T22:26:35.735Z,24.70
2022-12-09T22:29:05.903Z,22.77
2022-12-09T22:31:38.090Z,22.40
2022-12-09T22:34:07.883Z,23.48
2022-12-09T22:36:37.342Z,23.30
2022-12-09T22:39:06.882Z,25.52
2022-12-09T22:41:36.044Z,25.15
2022-12-09T22:44:04.381Z,24.45
2022-12-09T22:46:34.641Z,25.00
2022-12-09T22:49:05.728Z,24.42
2022-12-09T22:51:36.310Z,26.83
2022-12-09T22:54:06.461Z,24.00
2022-12-09T22:56:35.025Z,26.20
2022-12-09T22:59:02.892Z,27.23
2022-12-09T23:01:33.363Z,29.33
2022-12-09T23:04:03.546Z,27.08
2022-12-09T23:06:32.467Z,27.67
2022-12-09T23:09:00.440Z,28.27
2022-12-09T23:11:29.694Z,26.98
2022-12-09T23:14:00.413Z,28.35
2022-12-09T23:16:29.540Z,26.75
2022-12-09T23:18:58.996Z,26.45
2022-12-09T23:21:30.163Z,27.50
2022-12-09T23:23:59.498Z,25.90
2022-12-09T23:26:29.657Z,25.63
2022-12-09T23:29:02.532Z,27.98
2022-12-09T23:31:33.525Z,28.17
2022-12-09T23:34:02.634Z,27.83
2022-12-09T23:36:34.673Z,26.88
2022-12-09T23:39:03.931Z,27.73
2022-12-09T23:41:32.326Z,26.20
2022-12-09T23:44:00.807Z,27.20
2022-12-09T23:46:30.520Z,28.70
2022-12-09T23:48:59.026Z,27.35
2022-12-09T23:51:28.709Z,27.92
2022-12-09T23:54:00.084Z,30.55
2022-12-09T23:56:29.976Z,30.25
2022-12-09T23:59:01.203Z,30.25
